Time;durP1;ratioP1;P1;durP2;ratioP2;P2;SDS_P1;SDS_P2;PMS_P1;PMS_P2;Temp;Humidity;BMP_temperature;BMP_pressure;BME280_temperature;BME280_humidity;BME280_pressure;Samples;Min_cycle;Max_cycle;Signal;HPM_P1;HPM_P2
2023/10/08 00:00:49;;;;;;;4.97;3.20;;;16.10;99.90;;;;;;4986648;28;20221;-55
2023/10/08 00:03:20;;;;;;;4.00;3.20;;;16.10;99.90;;;;;;4986299;28;20226;-55
2023/10/08 00:05:49;;;;;;;3.27;2.97;;;16.10;99.90;;;;;;4981671;28;20230;-55
2023/10/08 00:08:23;;;;;;;3.23;2.83;;;16.00;99.90;;;;;;4986227;28;20299;-56
2023/10/08 00:10:53;;;;;;;5.50;3.30;;;15.90;99.90;;;;;;4982221;28;20299;-56
2023/10/08 00:13:22;;;;;;;5.03;3.33;;;15.90;99.90;;;;;;4981108;28;20197;-53
2023/10/08 00:15:52;;;;;;;5.53;3.00;;;15.80;99.90;;;;;;4985080;28;20211;-54
2023/10/08 00:18:22;;;;;;;5.90;3.00;;;15.70;99.90;;;;;;4984680;28;20211;-56
2023/10/08 00:20:58;;;;;;;3.67;2.80;;;15.60;99.90;;;;;;4981505;28;20234;-54
2023/10/08 00:23:28;;;;;;;4.33;3.27;;;15.60;99.90;;;;;;4986864;28;20260;-56
2023/10/08 00:25:59;;;;;;;4.53;3.03;;;15.40;99.90;;;;;;4982559;28;20221;-55
2023/10/08 00:28:32;;;;;;;3.50;3.10;;;15.40;99.90;;;;;;4977580;28;20234;-55
2023/10/08 00:31:11;;;;;;;6.37;3.50;;;15.40;99.90;;;;;;4988030;28;20218;-56
2023/10/08 00:33:40;;;;;;;5.93;3.37;;;15.40;99.90;;;;;;4983162;28;20230;-55
2023/10/08 00:36:18;;;;;;;3.90;2.63;;;15.50;99.90;;;;;;4985032;28;20230;-56
2023/10/08 00:38:50;;;;;;;3.93;3.13;;;15.50;99.90;;;;;;4981231;28;20232;-56
2023/10/08 00:41:21;;;;;;;5.20;3.40;;;15.50;99.90;;;;;;4982422;28;20227;-56
2023/10/08 00:43:53;;;;;;;5.67;3.00;;;15.50;99.90;;;;;;4988231;28;20228;-56
2023/10/08 00:46:23;;;;;;;3.30;3.00;;;15.60;99.90;;;;;;4983787;28;20199;-56
2023/10/08 00:48:56;;;;;;;6.43;3.43;;;15.60;99.90;;;;;;4985917;28;20521;-55
2023/10/08 00:51:32;;;;;;;4.10;3.17;;;15.60;99.90;;;;;;4984347;28;20683;-55
2023/10/08 00:54:06;;;;;;;6.50;3.30;;;15.60;99.90;;;;;;4987537;28;20305;-55
2023/10/08 00:56:50;;;;;;;3.50;3.10;;;15.60;99.90;;;;;;4982645;28;20223;-55
2023/10/08 00:59:21;;;;;;;5.53;3.13;;;15.60;99.90;;;;;;4986884;28;20238;-54
2023/10/08 01:01:52;;;;;;;3.17;2.87;;;15.60;99.90;;;;;;4982268;28;20217;-55
2023/10/08 01:04:23;;;;;;;6.47;3.17;;;15.50;99.90;;;;;;4982731;28;20661;-55
2023/10/08 01:06:58;;;;;;;5.50;3.17;;;15.50;99.90;;;;;;4986369;28;20547;-54
2023/10/08 01:09:32;;;;;;;10.50;3.70;;;15.40;99.90;;;;;;5009330;28;20239;-55
2023/10/08 01:12:14;;;;;;;4.70;3.17;;;15.30;99.90;;;;;;5001753;28;20542;-55
2023/10/08 01:14:45;;;;;;;5.37;3.30;;;15.30;99.90;;;;;;5004551;28;20327;-55
2023/10/08 01:17:15;;;;;;;6.57;3.20;;;15.30;99.90;;;;;;5000021;28;20689;-55
2023/10/08 01:19:45;;;;;;;3.30;3.00;;;15.40;99.90;;;;;;5001368;28;20244;-56
2023/10/08 01:22:18;;;;;;;3.70;3.40;;;15.40;99.90;;;;;;5002600;28;20209;-56
2023/10/08 01:24:48;;;;;;;6.10;3.47;;;15.40;99.90;;;;;;4958833;28;20580;-56
2023/10/08 01:27:21;;;;;;;7.27;3.67;;;15.40;99.90;;;;;;4999608;28;20231;-54
2023/10/08 01:29:51;;;;;;;4.83;3.13;;;15.40;99.90;;;;;;5001724;28;20228;-53
2023/10/08 01:32:24;;;;;;;3.80;3.20;;;15.40;99.90;;;;;;5001989;28;20307;-55
2023/10/08 01:34:52;;;;;;;7.03;3.40;;;15.30;99.90;;;;;;5001071;28;20644;-54
2023/10/08 01:37:22;;;;;;;4.63;3.40;;;15.30;99.90;;;;;;5004500;28;20545;-54
2023/10/08 01:39:50;;;;;;;6.10;3.50;;;15.30;99.90;;;;;;5004652;28;20237;-55
2023/10/08 01:42:20;;;;;;;5.43;3.20;;;15.30;99.90;;;;;;4998911;28;20325;-54
2023/10/08 01:44:50;;;;;;;5.60;3.23;;;15.20;99.90;;;;;;5001807;28;20232;-54
2023/10/08 01:47:19;;;;;;;5.97;3.30;;;15.20;99.90;;;;;;5005152;28;20224;-52
2023/10/08 01:49:48;;;;;;;4.67;3.30;;;15.10;99.90;;;;;;5003982;28;20225;-54
2023/10/08 01:52:20;;;;;;;10.57;3.30;;;15.10;99.90;;;;;;5007678;28;20203;-54
2023/10/08 01:54:53;;;;;;;3.60;3.30;;;15.10;99.90;;;;;;5007499;28;20241;-53
2023/10/08 01:57:22;;;;;;;5.73;3.70;;;15.10;99.90;;;;;;5008098;28;20222;-55
2023/10/08 01:59:54;;;;;;;3.70;3.33;;;15.10;99.90;;;;;;5010396;28;20378;-52
2023/10/08 02:02:22;;;;;;;6.13;3.53;;;15.10;99.90;;;;;;5007264;28;20349;-54
2023/10/08 02:04:50;;;;;;;4.17;3.27;;;15.10;99.90;;;;;;5011033;28;20797;-55
2023/10/08 02:07:21;;;;;;;5.23;3.50;;;15.00;99.90;;;;;;5008637;28;20196;-55
2023/10/08 02:09:50;;;;;;;9.20;3.47;;;15.00;99.90;;;;;;4998326;28;20229;-55
2023/10/08 02:12:19;;;;;;;6.53;3.60;;;15.00;99.90;;;;;;4990424;28;20220;-55
2023/10/08 02:14:48;;;;;;;6.33;3.50;;;15.00;99.90;;;;;;4988135;28;20693;-53
2023/10/08 02:17:17;;;;;;;3.37;3.03;;;15.00;99.90;;;;;;4985480;28;20274;-55
2023/10/08 02:19:46;;;;;;;7.37;3.70;;;15.10;99.90;;;;;;4986856;28;20228;-53
2023/10/08 02:22:14;;;;;;;4.27;3.27;;;15.20;99.90;;;;;;4988736;28;20208;-55
2023/10/08 02:24:43;;;;;;;3.87;3.20;;;15.10;99.90;;;;;;4985884;28;20212;-53
2023/10/08 02:27:15;;;;;;;3.50;3.03;;;15.10;99.90;;;;;;4966138;28;20246;-55
2023/10/08 02:29:43;;;;;;;6.10;3.30;;;15.20;99.90;;;;;;4986942;28;20235;-53
2023/10/08 02:32:12;;;;;;;7.67;3.63;;;15.10;99.90;;;;;;4990880;28;20224;-54
2023/10/08 02:34:42;;;;;;;6.47;3.17;;;15.10;99.90;;;;;;4988028;28;20243;-55
2023/10/08 02:37:10;;;;;;;4.23;3.43;;;15.10;99.90;;;;;;4988169;28;20220;-53
2023/10/08 02:39:40;;;;;;;4.77;3.23;;;15.10;99.90;;;;;;4989835;28;20280;-54
2023/10/08 02:42:10;;;;;;;5.20;3.10;;;15.20;99.90;;;;;;4989098;28;20235;-55
2023/10/08 02:44:41;;;;;;;4.20;3.77;;;15.10;99.90;;;;;;4991669;28;20231;-55
2023/10/08 02:47:12;;;;;;;6.83;4.00;;;15.10;99.90;;;;;;4990447;28;20226;-54
2023/10/08 02:49:41;;;;;;;5.13;3.50;;;15.00;99.90;;;;;;4989073;28;20234;-55
2023/10/08 02:52:09;;;;;;;6.63;3.60;;;15.00;99.90;;;;;;4986018;28;20199;-56
2023/10/08 02:54:38;;;;;;;7.83;3.83;;;14.90;99.90;;;;;;4988742;28;20310;-56
2023/10/08 02:57:10;;;;;;;7.47;3.70;;;14.90;99.90;;;;;;4987983;28;20241;-55
2023/10/08 02:59:40;;;;;;;5.60;3.60;;;14.90;99.90;;;;;;4987363;28;20232;-54
2023/10/08 03:02:18;;;;;;;5.10;3.50;;;14.90;99.90;;;;;;4984697;28;20224;-55
2023/10/08 03:04:51;;;;;;;5.90;3.60;;;14.90;99.90;;;;;;4986868;28;20285;-55
2023/10/08 03:07:31;;;;;;;5.43;3.63;;;14.90;99.90;;;;;;4983206;28;20193;-56
2023/10/08 03:10:06;;;;;;;7.67;3.47;;;14.90;99.90;;;;;;4988558;28;20273;-55
2023/10/08 03:12:34;;;;;;;5.97;3.60;;;14.90;99.90;;;;;;4985906;28;20656;-54
2023/10/08 03:15:13;;;;;;;4.80;3.27;;;14.90;99.90;;;;;;4988652;28;20227;-52
2023/10/08 03:17:50;;;;;;;8.40;3.80;;;14.90;99.90;;;;;;4983549;28;20318;-53
2023/10/08 03:20:29;;;;;;;3.50;3.23;;;14.80;99.90;;;;;;4982712;28;20248;-53
2023/10/08 03:22:58;;;;;;;6.37;3.67;;;14.70;99.90;;;;;;4986936;28;20248;-54
2023/10/08 03:25:28;;;;;;;3.77;3.43;;;14.70;99.90;;;;;;4984786;28;20200;-54
2023/10/08 03:27:59;;;;;;;10.10;3.53;;;14.70;99.90;;;;;;4988554;28;20196;-56
2023/10/08 03:30:31;;;;;;;8.43;3.70;;;14.60;99.90;;;;;;4983323;28;20317;-52
2023/10/08 03:33:01;;;;;;;3.80;3.40;;;14.60;99.90;;;;;;4988005;28;20229;-54
2023/10/08 03:35:36;;;;;;;7.13;3.77;;;14.60;99.90;;;;;;4989324;28;20218;-53
2023/10/08 03:38:21;;;;;;;5.67;3.67;;;14.50;99.90;;;;;;4986407;28;20240;-56
2023/10/08 03:40:54;;;;;;;11.40;4.00;;;14.50;99.90;;;;;;4983170;28;20281;-55
2023/10/08 03:43:33;;;;;;;5.77;3.60;;;14.50;99.90;;;;;;4988057;28;20190;-55
2023/10/08 03:46:05;;;;;;;3.73;3.43;;;14.50;99.90;;;;;;4995726;28;20194;-53
2023/10/08 03:48:36;;;;;;;4.57;3.40;;;14.40;99.90;;;;;;4981349;28;20217;-55
2023/10/08 03:51:11;;;;;;;5.57;3.33;;;14.40;99.90;;;;;;4984972;28;20302;-54
2023/10/08 03:53:57;;;;;;;8.47;3.90;;;14.30;99.90;;;;;;4983952;28;20230;-53
2023/10/08 03:56:29;;;;;;;6.53;3.90;;;14.30;99.90;;;;;;4984233;28;20222;-55
2023/10/08 03:59:00;;;;;;;9.20;4.23;;;14.30;99.90;;;;;;4983319;28;20216;-54
2023/10/08 04:01:32;;;;;;;6.27;4.00;;;14.30;99.90;;;;;;4983996;28;20196;-54
2023/10/08 04:04:01;;;;;;;5.60;3.90;;;14.20;99.90;;;;;;4982720;28;20187;-54
2023/10/08 04:06:31;;;;;;;5.37;3.83;;;14.20;99.90;;;;;;4984254;28;20223;-55
2023/10/08 04:09:16;;;;;;;6.30;3.77;;;14.10;99.90;;;;;;4985315;28;20239;-53
2023/10/08 04:12:03;;;;;;;5.30;3.50;;;14.10;99.90;;;;;;4981839;28;20230;-53
2023/10/08 04:14:34;;;;;;;11.70;3.93;;;14.00;99.90;;;;;;4985387;28;20311;-54
2023/10/08 04:17:04;;;;;;;6.13;3.77;;;13.90;99.90;;;;;;4982136;28;20267;-53
2023/10/08 04:19:33;;;;;;;6.23;4.10;;;13.80;99.90;;;;;;4987258;28;20203;-51
2023/10/08 04:22:03;;;;;;;5.97;3.63;;;13.80;99.90;;;;;;4980749;28;20354;-53
2023/10/08 04:24:34;;;;;;;6.40;3.97;;;13.70;99.90;;;;;;4982897;28;20247;-53
2023/10/08 04:27:05;;;;;;;5.43;3.70;;;13.60;99.90;;;;;;4980734;28;20214;-54
2023/10/08 04:29:36;;;;;;;5.43;3.73;;;13.50;99.90;;;;;;4982808;28;20677;-54
2023/10/08 04:32:12;;;;;;;4.80;3.70;;;13.50;99.90;;;;;;4984910;28;20218;-54
2023/10/08 04:34:46;;;;;;;5.13;3.97;;;13.40;99.90;;;;;;4982321;28;20235;-54
2023/10/08 04:37:20;;;;;;;4.93;4.00;;;13.40;99.90;;;;;;4987074;28;20283;-51
2023/10/08 04:39:57;;;;;;;10.70;4.03;;;13.40;99.90;;;;;;4983802;28;20224;-54
2023/10/08 04:42:26;;;;;;;7.73;3.93;;;13.30;99.90;;;;;;4984607;28;20232;-52
2023/10/08 04:44:55;;;;;;;6.17;3.90;;;13.30;99.90;;;;;;4979504;28;20233;-55
2023/10/08 04:47:35;;;;;;;7.83;4.47;;;13.30;99.90;;;;;;4985214;28;20219;-52
2023/10/08 04:50:05;;;;;;;7.17;4.10;;;13.20;99.90;;;;;;4982563;28;20234;-52
2023/10/08 04:52:45;;;;;;;4.10;3.80;;;13.20;99.90;;;;;;4986519;28;20254;-51
2023/10/08 04:55:20;;;;;;;5.73;4.00;;;13.20;99.90;;;;;;4963961;28;20946;-51
2023/10/08 04:57:50;;;;;;;7.17;4.10;;;13.20;99.90;;;;;;4985173;28;20236;-53
2023/10/08 05:00:40;;;;;;;7.47;4.40;;;13.10;99.90;;;;;;4983145;28;20254;-55
2023/10/08 05:03:14;;;;;;;5.73;3.93;;;13.00;99.90;;;;;;4984378;28;20251;-54
2023/10/08 05:06:07;;;;;;;6.70;3.73;;;13.10;99.90;;;;;;4994958;28;20309;-52
2023/10/08 05:08:47;;;;;;;6.10;4.33;;;13.00;99.90;;;;;;5004008;28;20228;-54
2023/10/08 05:11:24;;;;;;;11.07;4.10;;;13.00;99.90;;;;;;5007756;28;20591;-55
2023/10/08 05:14:02;;;;;;;4.27;3.63;;;13.00;99.90;;;;;;5004895;28;20283;-53
2023/10/08 05:16:36;;;;;;;6.40;3.83;;;13.00;99.90;;;;;;5004981;28;20242;-54
2023/10/08 05:19:25;;;;;;;8.87;4.07;;;13.00;99.90;;;;;;5004207;28;20665;-55
2023/10/08 05:22:17;;;;;;;15.47;4.83;;;13.00;99.90;;;;;;5000247;28;20213;-54
2023/10/08 05:25:07;;;;;;;5.93;4.27;;;13.00;99.90;;;;;;4986548;28;20233;-55
2023/10/08 05:27:56;;;;;;;5.90;4.03;;;13.00;99.90;;;;;;5003094;28;20217;-53
2023/10/08 05:30:28;;;;;;;7.80;4.40;;;13.00;99.90;;;;;;5003284;28;20252;-55
2023/10/08 05:33:12;;;;;;;10.57;4.20;;;12.90;99.90;;;;;;5002492;28;20226;-52
2023/10/08 05:35:56;;;;;;;7.03;4.23;;;12.90;99.90;;;;;;5001106;28;20269;-51
2023/10/08 05:49:43;;;;;;;5.40;4.50;;;12.70;99.90;;;;;;4988128;28;20233;-56
2023/10/08 05:52:25;;;;;;;6.97;4.63;;;12.70;99.90;;;;;;4998645;28;20191;-54
2023/10/08 05:57:52;;;;;;;6.70;4.67;;;12.70;99.90;;;;;;4995658;28;20226;-55
2023/10/08 06:03:21;;;;;;;6.90;4.23;;;12.70;99.90;;;;;;4980792;28;20263;-55
2023/10/08 06:06:07;;;;;;;6.90;5.10;;;12.70;99.90;;;;;;5001157;28;20223;-55
2023/10/08 06:08:49;;;;;;;5.97;4.43;;;12.70;99.90;;;;;;4983912;28;20324;-55
2023/10/08 06:11:30;;;;;;;5.60;4.60;;;12.70;99.90;;;;;;4987019;28;20727;-56
2023/10/08 06:14:00;;;;;;;16.10;5.53;;;12.70;99.90;;;;;;4978901;28;20227;-55
2023/10/08 06:16:41;;;;;;;8.07;4.57;;;12.80;99.90;;;;;;4985787;28;20559;-55
2023/10/08 06:19:10;;;;;;;5.27;4.60;;;12.80;99.90;;;;;;4981631;28;20193;-56
2023/10/08 06:21:39;;;;;;;6.13;4.43;;;12.80;99.90;;;;;;4982881;28;20219;-54
2023/10/08 06:24:10;;;;;;;8.10;4.97;;;12.90;99.90;;;;;;4982317;28;20632;-54
2023/10/08 06:26:44;;;;;;;15.60;5.37;;;12.90;99.90;;;;;;4980022;28;20234;-55
2023/10/08 06:29:27;;;;;;;8.53;4.43;;;12.90;99.90;;;;;;4983140;28;20219;-54
2023/10/08 06:32:01;;;;;;;4.97;4.37;;;13.00;99.90;;;;;;4980891;28;20233;-53
2023/10/08 06:34:31;;;;;;;7.70;4.53;;;12.90;99.90;;;;;;4983095;28;20222;-54
2023/10/08 06:37:01;;;;;;;8.00;4.80;;;13.00;99.90;;;;;;4980425;28;20290;-55
2023/10/08 06:39:47;;;;;;;8.13;4.77;;;13.10;99.90;;;;;;4989505;28;20421;-52
2023/10/08 06:42:17;;;;;;;8.87;4.40;;;13.10;99.90;;;;;;4988051;28;20599;-55
2023/10/08 06:44:48;;;;;;;7.80;4.90;;;13.20;99.90;;;;;;4989761;28;20247;-51
2023/10/08 06:47:18;;;;;;;5.77;4.70;;;13.20;99.90;;;;;;4984148;28;20309;-55
2023/10/08 06:49:47;;;;;;;7.00;4.37;;;13.40;99.90;;;;;;4986978;28;20246;-53
2023/10/08 06:52:15;;;;;;;6.47;4.67;;;13.60;99.90;;;;;;4983069;28;20191;-53
2023/10/08 06:54:46;;;;;;;12.67;5.17;;;13.60;99.90;;;;;;5001635;28;20208;-54
2023/10/08 06:57:20;;;;;;;9.43;4.93;;;13.70;99.90;;;;;;4985966;28;20222;-53
2023/10/08 06:59:50;;;;;;;5.40;4.63;;;13.80;99.90;;;;;;4987761;28;20224;-54
2023/10/08 07:02:20;;;;;;;7.67;5.00;;;13.80;99.90;;;;;;4984011;28;20683;-55
2023/10/08 07:04:50;;;;;;;7.90;4.87;;;13.90;99.90;;;;;;4986609;28;20235;-55
2023/10/08 07:07:19;;;;;;;5.07;4.60;;;13.90;99.90;;;;;;4983941;28;20247;-54
2023/10/08 07:09:51;;;;;;;7.63;4.93;;;13.90;99.90;;;;;;4982715;28;20728;-55
2023/10/08 07:12:20;;;;;;;6.17;4.63;;;14.10;99.90;;;;;;4986732;28;20231;-55
2023/10/08 07:14:54;;;;;;;6.53;4.87;;;14.30;99.90;;;;;;4984741;28;20219;-55
2023/10/08 07:17:27;;;;;;;5.57;4.20;;;14.40;99.90;;;;;;4984074;28;20242;-55
2023/10/08 07:19:57;;;;;;;7.10;4.73;;;14.40;99.90;;;;;;4987457;28;20218;-55
2023/10/08 07:22:28;;;;;;;10.67;5.13;;;14.50;99.90;;;;;;4985826;28;20210;-56
2023/10/08 07:24:59;;;;;;;7.77;5.20;;;14.50;99.90;;;;;;4986484;28;20704;-55
2023/10/08 07:27:31;;;;;;;5.20;4.47;;;14.60;99.90;;;;;;4986115;28;20701;-54
2023/10/08 07:30:03;;;;;;;7.87;4.77;;;14.70;99.90;;;;;;4983809;28;20315;-54
2023/10/08 07:32:32;;;;;;;6.97;5.23;;;14.70;99.90;;;;;;4984866;28;20699;-55
2023/10/08 07:35:16;;;;;;;8.90;4.90;;;14.80;99.90;;;;;;4989383;28;20244;-56
2023/10/08 07:37:44;;;;;;;7.40;5.23;;;14.80;99.90;;;;;;4984710;28;20232;-53
2023/10/08 07:40:15;;;;;;;7.97;4.80;;;15.00;99.90;;;;;;4984101;28;20201;-54
2023/10/08 07:42:44;;;;;;;6.57;4.90;;;15.10;99.90;;;;;;4965714;28;20244;-55
2023/10/08 07:45:17;;;;;;;6.83;4.63;;;15.10;99.90;;;;;;4980339;28;20314;-54
2023/10/08 07:47:46;;;;;;;9.13;4.83;;;15.20;99.90;;;;;;4978564;28;20233;-54
2023/10/08 07:50:16;;;;;;;7.57;5.03;;;15.20;99.90;;;;;;4984247;28;20691;-55
2023/10/08 07:52:44;;;;;;;10.60;5.03;;;15.20;99.90;;;;;;4988765;28;20226;-53
2023/10/08 07:55:17;;;;;;;8.10;5.07;;;15.30;99.90;;;;;;4986548;28;20225;-55
2023/10/08 07:57:46;;;;;;;9.93;5.70;;;15.50;99.90;;;;;;4982921;28;20236;-56
2023/10/08 08:00:25;;;;;;;12.17;5.40;;;15.60;99.90;;;;;;4981986;28;20235;-56
2023/10/08 08:02:55;;;;;;;6.53;4.73;;;15.70;99.90;;;;;;4965937;28;20257;-55
2023/10/08 08:05:25;;;;;;;7.23;5.17;;;15.70;99.90;;;;;;4978263;28;20272;-55
2023/10/08 08:07:56;;;;;;;7.93;4.93;;;15.70;99.90;;;;;;4987358;28;20241;-52
2023/10/08 08:10:26;;;;;;;8.93;5.30;;;15.90;99.90;;;;;;4983402;28;20320;-55
2023/10/08 08:12:56;;;;;;;9.37;4.83;;;16.00;99.90;;;;;;4983610;28;20705;-54
2023/10/08 08:15:28;;;;;;;9.23;5.20;;;16.30;99.90;;;;;;4985667;28;20227;-55
2023/10/08 08:17:57;;;;;;;12.30;5.20;;;16.50;99.90;;;;;;4986282;28;20214;-53
2023/10/08 08:20:34;;;;;;;7.57;4.97;;;16.60;99.90;;;;;;4977413;28;20312;-55
2023/10/08 08:23:06;;;;;;;6.77;4.80;;;16.80;99.90;;;;;;4987061;28;20232;-55
2023/10/08 08:25:55;;;;;;;8.67;4.93;;;16.90;99.90;;;;;;4985558;28;20707;-55
2023/10/08 08:28:24;;;;;;;9.93;5.30;;;17.10;99.90;;;;;;4983355;28;20194;-56
2023/10/08 08:30:55;;;;;;;12.13;5.43;;;17.30;99.90;;;;;;4985136;28;20285;-54
2023/10/08 08:33:23;;;;;;;7.43;5.27;;;17.40;99.90;;;;;;4987514;28;20233;-55
2023/10/08 08:36:03;;;;;;;14.10;5.57;;;17.40;99.90;;;;;;4987944;28;20218;-55
2023/10/08 08:38:32;;;;;;;10.60;6.47;;;17.50;99.90;;;;;;4980780;28;20250;-55
2023/10/08 08:41:07;;;;;;;9.10;5.07;;;17.60;99.90;;;;;;4984811;28;20236;-55
2023/10/08 08:43:36;;;;;;;8.30;5.33;;;17.80;99.90;;;;;;4985487;28;20236;-53
2023/10/08 08:46:06;;;;;;;6.43;4.60;;;17.90;99.90;;;;;;4982630;28;20198;-53
2023/10/08 08:48:38;;;;;;;12.03;5.43;;;18.20;99.90;;;;;;4982056;28;20219;-54
2023/10/08 08:51:09;;;;;;;10.90;5.10;;;18.40;99.90;;;;;;4982368;28;20265;-55
2023/10/08 08:53:37;;;;;;;8.47;5.87;;;18.50;99.90;;;;;;4984956;28;20264;-56
2023/10/08 08:56:10;;;;;;;13.97;6.60;;;18.40;99.90;;;;;;4983094;28;20235;-54
2023/10/08 08:58:41;;;;;;;16.97;6.30;;;18.50;99.90;;;;;;4986618;28;20230;-55
2023/10/08 09:01:13;;;;;;;13.67;5.90;;;18.50;99.90;;;;;;4980288;28;20222;-56
2023/10/08 09:03:42;;;;;;;13.93;5.50;;;18.70;99.90;;;;;;4974613;28;20249;-55
2023/10/08 09:06:11;;;;;;;15.37;6.37;;;18.80;99.90;;;;;;4981254;28;20230;-53
2023/10/08 09:08:42;;;;;;;12.20;6.47;;;18.80;99.90;;;;;;4980552;28;20680;-56
2023/10/08 09:11:16;;;;;;;11.70;5.87;;;18.90;99.90;;;;;;4981906;28;20264;-56
2023/10/08 09:13:44;;;;;;;15.73;6.10;;;19.10;99.90;;;;;;4986187;28;20226;-56
2023/10/08 09:16:14;;;;;;;17.40;5.83;;;19.10;99.90;;;;;;4980674;28;21149;-56
2023/10/08 09:18:45;;;;;;;12.93;6.33;;;19.20;99.90;;;;;;4965732;28;20749;-54
2023/10/08 09:21:19;;;;;;;15.27;6.57;;;19.30;99.90;;;;;;4981929;28;20889;-55
2023/10/08 09:23:51;;;;;;;13.87;5.80;;;19.20;99.90;;;;;;4984964;28;20794;-53
2023/10/08 09:26:25;;;;;;;10.00;5.70;;;19.20;99.90;;;;;;4982787;28;20222;-54
2023/10/08 09:28:54;;;;;;;11.57;6.23;;;19.00;99.90;;;;;;4982088;28;20230;-55
2023/10/08 09:31:24;;;;;;;15.73;6.33;;;19.10;99.90;;;;;;4974906;28;20191;-55
2023/10/08 09:33:55;;;;;;;14.20;5.93;;;19.00;99.90;;;;;;4981511;28;20203;-54
2023/10/08 09:36:31;;;;;;;8.63;5.27;;;19.10;99.90;;;;;;4979629;28;20227;-55
2023/10/08 09:39:04;;;;;;;18.87;6.27;;;19.10;99.90;;;;;;4980017;28;20621;-52
2023/10/08 09:41:36;;;;;;;14.50;5.90;;;19.30;99.90;;;;;;4978841;28;20281;-54
2023/10/08 09:44:09;;;;;;;12.87;6.57;;;19.30;99.90;;;;;;4977727;28;20278;-55
2023/10/08 09:46:43;;;;;;;12.43;5.87;;;19.50;99.90;;;;;;4975814;28;20227;-52
2023/10/08 09:49:13;;;;;;;17.10;6.30;;;19.70;99.90;;;;;;4977607;28;20226;-55
2023/10/08 09:51:41;;;;;;;7.53;5.80;;;19.70;99.90;;;;;;4981041;28;20222;-54
2023/10/08 09:54:16;;;;;;;12.83;6.33;;;19.70;99.90;;;;;;4976402;28;20227;-56
2023/10/08 09:56:46;;;;;;;14.57;6.37;;;19.80;99.90;;;;;;4983174;28;20637;-55
2023/10/08 09:59:20;;;;;;;10.17;6.03;;;19.90;99.90;;;;;;4961768;28;20234;-54
2023/10/08 10:01:49;;;;;;;10.27;5.90;;;19.90;99.90;;;;;;4978737;28;20305;-54
2023/10/08 10:04:25;;;;;;;15.43;6.33;;;20.00;99.90;;;;;;4977585;28;20198;-56
2023/10/08 10:06:54;;;;;;;14.23;5.97;;;20.10;99.90;;;;;;4978360;28;20207;-54
2023/10/08 10:09:24;;;;;;;14.80;6.43;;;20.20;99.90;;;;;;4979313;28;20229;-55
2023/10/08 10:11:56;;;;;;;11.47;6.80;;;20.30;99.90;;;;;;4984455;28;20227;-56
2023/10/08 10:14:26;;;;;;;16.27;6.40;;;20.50;99.90;;;;;;4987388;28;20235;-54
2023/10/08 10:17:14;;;;;;;12.80;6.37;;;20.60;99.90;;;;;;4987766;28;20589;-56
2023/10/08 10:20:06;;;;;;;13.57;7.03;;;20.60;99.90;;;;;;4983542;28;21105;-55
2023/10/08 10:22:35;;;;;;;10.13;6.47;;;20.50;99.90;;;;;;4985325;28;21021;-54
2023/10/08 10:25:14;;;;;;;14.67;6.53;;;20.70;99.90;;;;;;4985295;28;20222;-57
2023/10/08 10:28:23;;;;;;;16.30;6.47;;;20.70;99.90;;;;;;4980387;28;20227;-54
2023/10/08 10:30:52;;;;;;;12.77;6.10;;;20.90;99.90;;;;;;4978424;28;20620;-54
2023/10/08 10:33:21;;;;;;;13.13;6.60;;;20.90;99.90;;;;;;4985769;28;20225;-54
2023/10/08 10:35:53;;;;;;;13.93;6.77;;;21.10;99.90;;;;;;4985253;28;20232;-55
2023/10/08 10:38:26;;;;;;;14.90;6.63;;;21.30;99.90;;;;;;4984634;28;20228;-55
2023/10/08 10:40:57;;;;;;;14.07;6.50;;;21.50;99.90;;;;;;4981877;28;20305;-51
2023/10/08 10:43:32;;;;;;;16.03;7.60;;;21.60;99.90;;;;;;4983967;28;20194;-54
2023/10/08 10:46:24;;;;;;;13.37;6.43;;;21.50;99.90;;;;;;4982435;28;20191;-52
2023/10/08 10:49:05;;;;;;;12.27;6.40;;;21.50;99.90;;;;;;4984583;28;20272;-55
2023/10/08 10:51:34;;;;;;;12.17;6.23;;;21.50;99.90;;;;;;4982119;28;20215;-53
2023/10/08 10:54:09;;;;;;;14.60;6.40;;;21.50;99.90;;;;;;4984588;28;20225;-54
2023/10/08 10:56:42;;;;;;;15.90;6.17;;;21.70;99.90;;;;;;4982286;28;20239;-53
2023/10/08 10:59:19;;;;;;;9.90;6.20;;;21.80;99.90;;;;;;4976984;28;20441;-53
2023/10/08 11:01:52;;;;;;;10.03;5.60;;;21.90;99.90;;;;;;4984186;28;20235;-53
2023/10/08 11:04:28;;;;;;;14.07;6.50;;;22.00;99.90;;;;;;4981252;28;20200;-54
2023/10/08 11:07:00;;;;;;;10.50;5.93;;;22.10;99.90;;;;;;4983989;28;20265;-56
2023/10/08 11:09:38;;;;;;;13.50;6.50;;;22.00;99.90;;;;;;4991479;28;20227;-55
2023/10/08 11:12:10;;;;;;;11.40;5.93;;;22.10;99.90;;;;;;5002408;28;20980;-54
2023/10/08 11:14:43;;;;;;;11.13;6.07;;;22.10;99.90;;;;;;5002182;28;20801;-55
2023/10/08 11:17:15;;;;;;;12.37;6.20;;;22.20;99.90;;;;;;5001773;28;20227;-56
2023/10/08 11:19:45;;;;;;;12.23;5.60;;;22.20;99.90;;;;;;5001576;28;20229;-56
2023/10/08 11:22:18;;;;;;;11.87;6.10;;;22.30;99.90;;;;;;5005450;28;20673;-54
2023/10/08 11:24:48;;;;;;;13.33;5.90;;;22.50;99.90;;;;;;5004382;28;20215;-56
2023/10/08 11:27:28;;;;;;;11.13;5.90;;;22.50;99.90;;;;;;4982818;28;20220;-55
2023/10/08 11:30:00;;;;;;;10.53;6.07;;;22.70;99.90;;;;;;5017201;28;20224;-54
2023/10/08 11:32:32;;;;;;;13.57;5.87;;;22.60;99.90;;;;;;5002512;28;20216;-55
2023/10/08 11:35:15;;;;;;;12.10;5.37;;;22.60;99.90;;;;;;5020382;28;20228;-54
2023/10/08 11:37:50;;;;;;;11.83;5.80;;;22.60;99.90;;;;;;5021646;28;20231;-56
2023/10/08 11:40:28;;;;;;;13.90;6.07;;;22.60;99.90;;;;;;5003115;28;20604;-54
2023/10/08 11:42:58;;;;;;;9.53;5.20;;;22.70;99.90;;;;;;5006218;28;20203;-54
2023/10/08 11:45:38;;;;;;;11.07;6.57;;;22.70;99.90;;;;;;5002464;28;20668;-54
2023/10/08 11:48:11;;;;;;;13.93;5.97;;;22.70;99.90;;;;;;5004117;28;20224;-54
2023/10/08 11:50:40;;;;;;;12.30;5.80;;;22.70;99.90;;;;;;5001110;28;20688;-55
2023/10/08 11:53:11;;;;;;;7.17;5.20;;;22.70;99.90;;;;;;5003098;28;20607;-56
2023/10/08 11:55:40;;;;;;;10.10;5.67;;;22.80;99.90;;;;;;5001910;28;20245;-55
2023/10/08 11:58:10;;;;;;;11.60;5.50;;;22.90;99.90;;;;;;5004375;28;20844;-54
2023/10/08 12:00:45;;;;;;;13.67;5.83;;;22.80;99.90;;;;;;5020108;28;21084;-56
2023/10/08 12:03:17;;;;;;;11.80;6.37;;;22.90;99.90;;;;;;5000738;28;20220;-54
2023/10/08 12:05:48;;;;;;;12.20;5.90;;;22.90;99.90;;;;;;5002549;28;20228;-53
2023/10/08 12:08:20;;;;;;;15.17;6.10;;;23.00;99.90;;;;;;5001422;28;20261;-56
2023/10/08 12:10:53;;;;;;;13.10;5.90;;;23.10;99.90;;;;;;4980988;28;20592;-55
2023/10/08 12:13:24;;;;;;;16.00;6.30;;;23.20;99.90;;;;;;4979663;28;20213;-54
2023/10/08 12:16:05;;;;;;;9.57;6.27;;;23.20;99.90;;;;;;4982533;28;20206;-53
2023/10/08 12:18:39;;;;;;;9.70;5.87;;;23.20;99.90;;;;;;4978585;28;20227;-54
2023/10/08 12:21:10;;;;;;;10.20;5.60;;;23.20;99.90;;;;;;4980640;28;20315;-55
2023/10/08 12:23:40;;;;;;;9.90;5.57;;;23.20;99.90;;;;;;4981648;28;20233;-54
2023/10/08 12:26:09;;;;;;;10.47;5.23;;;23.10;99.90;;;;;;4985009;28;20318;-55
2023/10/08 12:28:37;;;;;;;13.20;6.20;;;23.10;99.90;;;;;;4981743;28;20280;-56
2023/10/08 12:31:10;;;;;;;9.80;6.07;;;23.20;99.90;;;;;;4984292;28;20533;-54
2023/10/08 12:33:40;;;;;;;10.43;5.10;;;23.30;99.90;;;;;;4984837;28;20260;-55
2023/10/08 12:36:11;;;;;;;10.50;5.53;;;23.30;99.90;;;;;;4978706;28;20219;-54
2023/10/08 12:38:42;;;;;;;9.47;5.50;;;23.50;99.90;;;;;;4986420;28;20276;-52
2023/10/08 12:41:14;;;;;;;13.00;5.97;;;23.60;99.90;;;;;;4983363;28;20329;-55
2023/10/08 12:43:45;;;;;;;9.07;5.83;;;23.70;99.90;;;;;;4987229;28;20236;-52
2023/10/08 12:46:18;;;;;;;10.90;5.47;;;23.80;99.90;;;;;;4978525;28;20230;-55
2023/10/08 12:48:52;;;;;;;15.03;5.97;;;23.80;99.90;;;;;;4984029;28;20235;-56
2023/10/08 12:51:23;;;;;;;9.50;5.80;;;23.90;99.90;;;;;;4980725;28;20226;-56
2023/10/08 12:53:58;;;;;;;9.97;5.90;;;23.90;99.90;;;;;;4984075;28;20233;-55
2023/10/08 12:56:39;;;;;;;10.43;5.73;;;23.90;99.90;;;;;;4982186;28;20226;-55
2023/10/08 12:59:08;;;;;;;11.17;5.40;;;24.10;99.90;;;;;;4980534;28;20242;-55
2023/10/08 13:01:41;;;;;;;13.43;6.07;;;24.20;99.90;;;;;;4978968;28;20238;-56
2023/10/08 13:04:15;;;;;;;12.47;5.60;;;24.30;99.90;;;;;;4979900;28;20198;-56
2023/10/08 13:06:46;;;;;;;13.00;5.63;;;24.30;99.90;;;;;;4978487;28;20242;-55
2023/10/08 13:09:14;;;;;;;13.70;5.80;;;24.30;99.90;;;;;;4973820;28;20237;-54
2023/10/08 13:11:43;;;;;;;9.33;5.67;;;24.20;99.90;;;;;;5001817;28;20215;-55
2023/10/08 13:14:12;;;;;;;9.60;5.07;;;24.20;99.90;;;;;;5015718;28;20226;-56
2023/10/08 13:16:44;;;;;;;8.17;5.53;;;24.30;99.90;;;;;;5004074;28;20938;-55
2023/10/08 13:19:15;;;;;;;8.30;5.57;;;24.20;99.90;;;;;;5004636;28;20195;-54
2023/10/08 13:21:44;;;;;;;11.23;5.80;;;24.20;99.90;;;;;;5001901;28;20342;-55
2023/10/08 13:24:12;;;;;;;6.23;5.13;;;24.20;99.90;;;;;;5003515;28;20236;-55
2023/10/08 13:26:47;;;;;;;11.80;5.10;;;24.20;99.90;;;;;;5006532;28;20226;-53
2023/10/08 13:29:18;;;;;;;10.40;5.53;;;24.20;99.90;;;;;;4997871;28;20222;-53